sensor_id;sensor_type;location;lat;lon;timestamp;temperature;humidity
40023;DHT22;25713;-35.352;149.036;2024-03-02T00:01:28;22.60;89.40
40023;DHT22;25713;-35.352;149.036;2024-03-02T00:03:57;22.60;89.20
40023;DHT22;25713;-35.352;149.036;2024-03-02T00:06:26;22.60;89.30
40023;DHT22;25713;-35.352;149.036;2024-03-02T00:09:00;22.60;89.30
40023;DHT22;25713;-35.352;149.036;2024-03-02T00:11:30;22.60;89.20
40023;DHT22;25713;-35.352;149.036;2024-03-02T00:13:59;22.70;89.30
40023;DHT22;25713;-35.352;149.036;2024-03-02T00:16:31;22.70;89.20
40023;DHT22;25713;-35.352;149.036;2024-03-02T00:19:03;22.60;89.00
40023;DHT22;25713;-35.352;149.036;2024-03-02T00:21:33;22.70;89.00
40023;DHT22;25713;-35.352;149.036;2024-03-02T00:24:12;22.60;88.90
40023;DHT22;25713;-35.352;149.036;2024-03-02T00:26:46;22.70;89.10
40023;DHT22;25713;-35.352;149.036;2024-03-02T00:29:17;22.60;88.90
40023;DHT22;25713;-35.352;149.036;2024-03-02T00:31:46;22.70;89.10
40023;DHT22;25713;-35.352;149.036;2024-03-02T00:34:16;22.70;89.30
40023;DHT22;25713;-35.352;149.036;2024-03-02T00:36:46;22.70;88.90
40023;DHT22;25713;-35.352;149.036;2024-03-02T00:39:18;22.60;88.90
40023;DHT22;25713;-35.352;149.036;2024-03-02T00:41:48;22.70;89.10
40023;DHT22;25713;-35.352;149.036;2024-03-02T00:44:22;22.70;88.90
40023;DHT22;25713;-35.352;149.036;2024-03-02T00:46:54;22.70;88.90
40023;DHT22;25713;-35.352;149.036;2024-03-02T00:49:24;22.70;88.80
40023;DHT22;25713;-35.352;149.036;2024-03-02T00:51:54;22.70;88.60
40023;DHT22;25713;-35.352;149.036;2024-03-02T00:54:26;22.70;88.40
40023;DHT22;25713;-35.352;149.036;2024-03-02T00:56:57;22.70;88.10
40023;DHT22;25713;-35.352;149.036;2024-03-02T00:59:26;22.70;87.60
40023;DHT22;25713;-35.352;149.036;2024-03-02T01:01:56;22.70;87.20
40023;DHT22;25713;-35.352;149.036;2024-03-02T01:04:25;22.70;87.60
40023;DHT22;25713;-35.352;149.036;2024-03-02T01:06:54;22.70;86.60
40023;DHT22;25713;-35.352;149.036;2024-03-02T01:09:26;22.80;87.20
40023;DHT22;25713;-35.352;149.036;2024-03-02T01:11:55;22.80;86.30
40023;DHT22;25713;-35.352;149.036;2024-03-02T01:14:25;22.80;85.90
40023;DHT22;25713;-35.352;149.036;2024-03-02T01:16:54;22.80;85.50
40023;DHT22;25713;-35.352;149.036;2024-03-02T01:19:24;22.80;85.90
40023;DHT22;25713;-35.352;149.036;2024-03-02T01:21:53;22.80;85.90
40023;DHT22;25713;-35.352;149.036;2024-03-02T01:24:25;22.80;86.00
40023;DHT22;25713;-35.352;149.036;2024-03-02T01:26:55;22.90;85.20
40023;DHT22;25713;-35.352;149.036;2024-03-02T01:29:24;22.80;84.90
40023;DHT22;25713;-35.352;149.036;2024-03-02T01:31:53;22.90;85.00
40023;DHT22;25713;-35.352;149.036;2024-03-02T01:34:23;22.90;85.00
40023;DHT22;25713;-35.352;149.036;2024-03-02T01:36:52;23.00;84.60
40023;DHT22;25713;-35.352;149.036;2024-03-02T01:39:21;23.00;83.20
40023;DHT22;25713;-35.352;149.036;2024-03-02T01:41:53;23.00;82.90
40023;DHT22;25713;-35.352;149.036;2024-03-02T01:44:22;23.10;81.60
40023;DHT22;25713;-35.352;149.036;2024-03-02T01:46:52;23.10;82.00
40023;DHT22;25713;-35.352;149.036;2024-03-02T01:49:22;23.10;81.30
40023;DHT22;25713;-35.352;149.036;2024-03-02T01:51:51;23.10;81.60
40023;DHT22;25713;-35.352;149.036;2024-03-02T01:54:21;23.10;80.90
40023;DHT22;25713;-35.352;149.036;2024-03-02T01:56:52;23.10;81.50
40023;DHT22;25713;-35.352;149.036;2024-03-02T01:59:22;23.10;80.40
40023;DHT22;25713;-35.352;149.036;2024-03-02T02:01:51;23.10;80.20
40023;DHT22;25713;-35.352;149.036;2024-03-02T02:04:21;23.20;79.60
40023;DHT22;25713;-35.352;149.036;2024-03-02T02:06:50;23.20;78.40
40023;DHT22;25713;-35.352;149.036;2024-03-02T02:09:20;23.20;78.50
40023;DHT22;25713;-35.352;149.036;2024-03-02T02:11:50;23.30;78.40
40023;DHT22;25713;-35.352;149.036;2024-03-02T02:14:22;23.40;77.80
40023;DHT22;25713;-35.352;149.036;2024-03-02T02:16:51;23.40;76.80
40023;DHT22;25713;-35.352;149.036;2024-03-02T02:19:21;23.40;75.90
40023;DHT22;25713;-35.352;149.036;2024-03-02T02:21:52;23.40;74.70
40023;DHT22;25713;-35.352;149.036;2024-03-02T02:24:22;23.40;76.10
40023;DHT22;25713;-35.352;149.036;2024-03-02T02:26:51;23.50;69.40
40023;DHT22;25713;-35.352;149.036;2024-03-02T02:29:20;23.40;72.60
40023;DHT22;25713;-35.352;149.036;2024-03-02T02:31:50;23.40;71.80
40023;DHT22;25713;-35.352;149.036;2024-03-02T02:34:19;23.40;65.90
40023;DHT22;25713;-35.352;149.036;2024-03-02T02:36:51;23.40;65.00
40023;DHT22;25713;-35.352;149.036;2024-03-02T02:39:21;23.50;57.70
40023;DHT22;25713;-35.352;149.036;2024-03-02T02:41:51;23.60;64.80
40023;DHT22;25713;-35.352;149.036;2024-03-02T02:44:20;23.60;60.20
40023;DHT22;25713;-35.352;149.036;2024-03-02T02:46:50;23.60;58.40
40023;DHT22;25713;-35.352;149.036;2024-03-02T02:49:19;23.60;58.30
40023;DHT22;25713;-35.352;149.036;2024-03-02T02:51:51;23.70;58.70
40023;DHT22;25713;-35.352;149.036;2024-03-02T02:54:20;23.70;62.60
40023;DHT22;25713;-35.352;149.036;2024-03-02T02:56:49;23.70;63.60
40023;DHT22;25713;-35.352;149.036;2024-03-02T02:59:19;23.70;59.80
40023;DHT22;25713;-35.352;149.036;2024-03-02T03:01:48;23.70;54.60
40023;DHT22;25713;-35.352;149.036;2024-03-02T03:04:17;23.70;62.70
40023;DHT22;25713;-35.352;149.036;2024-03-02T03:06:47;23.70;60.00
40023;DHT22;25713;-35.352;149.036;2024-03-02T03:09:18;23.70;54.50
40023;DHT22;25713;-35.352;149.036;2024-03-02T03:11:48;23.80;59.10
40023;DHT22;25713;-35.352;149.036;2024-03-02T03:14:17;23.80;56.50
40023;DHT22;25713;-35.352;149.036;2024-03-02T03:16:48;23.90;62.70
40023;DHT22;25713;-35.352;149.036;2024-03-02T03:19:17;23.80;62.20
40023;DHT22;25713;-35.352;149.036;2024-03-02T03:21:46;24.00;57.10
40023;DHT22;25713;-35.352;149.036;2024-03-02T03:24:18;24.00;50.30
40023;DHT22;25713;-35.352;149.036;2024-03-02T03:26:47;24.00;53.40
40023;DHT22;25713;-35.352;149.036;2024-03-02T03:29:16;24.00;50.40
40023;DHT22;25713;-35.352;149.036;2024-03-02T03:31:46;24.10;51.70
40023;DHT22;25713;-35.352;149.036;2024-03-02T03:34:15;24.10;52.40
40023;DHT22;25713;-35.352;149.036;2024-03-02T03:36:45;24.10;51.70
40023;DHT22;25713;-35.352;149.036;2024-03-02T03:39:14;24.20;54.10
40023;DHT22;25713;-35.352;149.036;2024-03-02T03:41:46;24.20;53.30
40023;DHT22;25713;-35.352;149.036;2024-03-02T03:44:15;24.10;53.00
40023;DHT22;25713;-35.352;149.036;2024-03-02T03:46:45;24.30;47.60
40023;DHT22;25713;-35.352;149.036;2024-03-02T03:49:14;24.30;57.00
40023;DHT22;25713;-35.352;149.036;2024-03-02T03:51:43;24.30;51.30
40023;DHT22;25713;-35.352;149.036;2024-03-02T03:54:13;24.30;50.20
40023;DHT22;25713;-35.352;149.036;2024-03-02T03:56:45;24.50;47.60
40023;DHT22;25713;-35.352;149.036;2024-03-02T03:59:14;24.80;45.10
40023;DHT22;25713;-35.352;149.036;2024-03-02T04:01:43;24.90;49.60
40023;DHT22;25713;-35.352;149.036;2024-03-02T04:04:13;24.80;55.40
40023;DHT22;25713;-35.352;149.036;2024-03-02T04:06:42;24.70;51.50
40023;DHT22;25713;-35.352;149.036;2024-03-02T04:09:12;24.90;49.40
40023;DHT22;25713;-35.352;149.036;2024-03-02T04:11:41;24.70;57.60
40023;DHT22;25713;-35.352;149.036;2024-03-02T04:14:12;24.60;51.80
40023;DHT22;25713;-35.352;149.036;2024-03-02T04:16:42;24.70;49.70
40023;DHT22;25713;-35.352;149.036;2024-03-02T04:19:11;24.70;53.60
40023;DHT22;25713;-35.352;149.036;2024-03-02T04:21:41;24.60;50.10
40023;DHT22;25713;-35.352;149.036;2024-03-02T04:24:10;24.60;56.70
40023;DHT22;25713;-35.352;149.036;2024-03-02T04:26:39;24.60;51.30
40023;DHT22;25713;-35.352;149.036;2024-03-02T04:29:11;24.80;48.30
40023;DHT22;25713;-35.352;149.036;2024-03-02T04:31:40;24.90;50.60
40023;DHT22;25713;-35.352;149.036;2024-03-02T04:34:09;25.00;50.60
40023;DHT22;25713;-35.352;149.036;2024-03-02T04:36:39;24.90;52.00
40023;DHT22;25713;-35.352;149.036;2024-03-02T04:39:08;25.00;52.10
40023;DHT22;25713;-35.352;149.036;2024-03-02T04:41:38;25.00;54.60
40023;DHT22;25713;-35.352;149.036;2024-03-02T04:44:07;25.00;52.20
40023;DHT22;25713;-35.352;149.036;2024-03-02T04:46:39;25.00;50.80
40023;DHT22;25713;-35.352;149.036;2024-03-02T04:49:08;25.10;49.60
40023;DHT22;25713;-35.352;149.036;2024-03-02T04:51:37;25.10;53.10
40023;DHT22;25713;-35.352;149.036;2024-03-02T04:54:07;25.10;51.60
40023;DHT22;25713;-35.352;149.036;2024-03-02T04:56:36;25.00;54.20
40023;DHT22;25713;-35.352;149.036;2024-03-02T04:59:06;25.10;51.30
40023;DHT22;25713;-35.352;149.036;2024-03-02T05:01:37;25.30;49.00
40023;DHT22;25713;-35.352;149.036;2024-03-02T05:04:06;25.20;56.30
40023;DHT22;25713;-35.352;149.036;2024-03-02T05:06:36;25.20;53.40
40023;DHT22;25713;-35.352;149.036;2024-03-02T05:09:05;25.30;51.10
40023;DHT22;25713;-35.352;149.036;2024-03-02T05:11:35;25.20;55.50
40023;DHT22;25713;-35.352;149.036;2024-03-02T05:14:05;25.20;55.90
40023;DHT22;25713;-35.352;149.036;2024-03-02T05:16:34;25.20;55.20
40023;DHT22;25713;-35.352;149.036;2024-03-02T05:19:06;25.20;54.20
40023;DHT22;25713;-35.352;149.036;2024-03-02T05:21:35;25.20;56.40
40023;DHT22;25713;-35.352;149.036;2024-03-02T05:24:05;25.10;56.00
40023;DHT22;25713;-35.352;149.036;2024-03-02T05:26:35;25.20;54.90
40023;DHT22;25713;-35.352;149.036;2024-03-02T05:29:04;25.30;53.30
40023;DHT22;25713;-35.352;149.036;2024-03-02T05:31:34;25.40;54.50
40023;DHT22;25713;-35.352;149.036;2024-03-02T05:34:05;25.40;52.00
40023;DHT22;25713;-35.352;149.036;2024-03-02T05:36:34;25.50;53.00
40023;DHT22;25713;-35.352;149.036;2024-03-02T05:39:04;25.40;56.60
40023;DHT22;25713;-35.352;149.036;2024-03-02T05:41:33;25.50;54.90
40023;DHT22;25713;-35.352;149.036;2024-03-02T05:44:03;25.50;54.40
40023;DHT22;25713;-35.352;149.036;2024-03-02T05:46:32;25.60;53.60
40023;DHT22;25713;-35.352;149.036;2024-03-02T05:49:02;25.70;51.40
40023;DHT22;25713;-35.352;149.036;2024-03-02T05:51:33;25.70;53.30
40023;DHT22;25713;-35.352;149.036;2024-03-02T05:54:03;25.60;55.90
40023;DHT22;25713;-35.352;149.036;2024-03-02T05:56:32;25.50;56.90
40023;DHT22;25713;-35.352;149.036;2024-03-02T05:59:02;25.50;53.90
40023;DHT22;25713;-35.352;149.036;2024-03-02T06:01:31;25.60;54.40
40023;DHT22;25713;-35.352;149.036;2024-03-02T06:04:01;25.60;52.70
40023;DHT22;25713;-35.352;149.036;2024-03-02T06:06:32;25.50;58.10
40023;DHT22;25713;-35.352;149.036;2024-03-02T06:09:02;25.50;58.10
40023;DHT22;25713;-35.352;149.036;2024-03-02T06:11:31;25.40;55.40
40023;DHT22;25713;-35.352;149.036;2024-03-02T06:14:01;25.60;54.50
40023;DHT22;25713;-35.352;149.036;2024-03-02T06:16:30;25.60;53.60
40023;DHT22;25713;-35.352;149.036;2024-03-02T06:19:00;25.50;55.70
40023;DHT22;25713;-35.352;149.036;2024-03-02T06:21:29;25.70;52.90
40023;DHT22;25713;-35.352;149.036;2024-03-02T06:24:01;25.70;55.00
40023;DHT22;25713;-35.352;149.036;2024-03-02T06:26:30;25.60;54.50
40023;DHT22;25713;-35.352;149.036;2024-03-02T06:29:00;25.80;52.90
40023;DHT22;25713;-35.352;149.036;2024-03-02T06:31:29;25.70;53.50
40023;DHT22;25713;-35.352;149.036;2024-03-02T06:33:58;25.70;53.60
40023;DHT22;25713;-35.352;149.036;2024-03-02T06:36:28;25.50;54.90
40023;DHT22;25713;-35.352;149.036;2024-03-02T06:38:59;25.50;58.40
40023;DHT22;25713;-35.352;149.036;2024-03-02T06:41:29;25.40;55.90
40023;DHT22;25713;-35.352;149.036;2024-03-02T06:43:58;25.40;57.90
40023;DHT22;25713;-35.352;149.036;2024-03-02T06:46:28;25.30;59.40
40023;DHT22;25713;-35.352;149.036;2024-03-02T06:48:57;25.20;61.30
40023;DHT22;25713;-35.352;149.036;2024-03-02T06:51:26;25.10;65.20
40023;DHT22;25713;-35.352;149.036;2024-03-02T06:53:56;25.10;67.00
40023;DHT22;25713;-35.352;149.036;2024-03-02T06:56:27;25.00;68.90
40023;DHT22;25713;-35.352;149.036;2024-03-02T06:58:57;25.00;69.50
40023;DHT22;25713;-35.352;149.036;2024-03-02T07:01:26;24.90;70.20
40023;DHT22;25713;-35.352;149.036;2024-03-02T07:03:56;24.80;70.70
40023;DHT22;25713;-35.352;149.036;2024-03-02T07:06:25;24.80;71.20
40023;DHT22;25713;-35.352;149.036;2024-03-02T07:08:55;24.70;71.80
40023;DHT22;25713;-35.352;149.036;2024-03-02T07:11:26;24.60;72.20
40023;DHT22;25713;-35.352;149.036;2024-03-02T07:13:55;24.50;72.50
40023;DHT22;25713;-35.352;149.036;2024-03-02T07:16:25;24.40;72.40
40023;DHT22;25713;-35.352;149.036;2024-03-02T07:18:54;24.40;73.50
40023;DHT22;25713;-35.352;149.036;2024-03-02T07:21:24;24.40;73.40
40023;DHT22;25713;-35.352;149.036;2024-03-02T07:23:53;24.20;74.30
40023;DHT22;25713;-35.352;149.036;2024-03-02T07:26:23;24.20;73.50
40023;DHT22;25713;-35.352;149.036;2024-03-02T07:28:55;24.20;73.70
40023;DHT22;25713;-35.352;149.036;2024-03-02T07:31:24;24.10;74.30
40023;DHT22;25713;-35.352;149.036;2024-03-02T07:33:53;24.10;74.10
40023;DHT22;25713;-35.352;149.036;2024-03-02T07:36:23;24.00;74.80
40023;DHT22;25713;-35.352;149.036;2024-03-02T07:38:52;23.90;74.70
40023;DHT22;25713;-35.352;149.036;2024-03-02T07:41:22;24.00;75.10
40023;DHT22;25713;-35.352;149.036;2024-03-02T07:43:53;24.00;75.00
40023;DHT22;25713;-35.352;149.036;2024-03-02T07:46:23;23.90;75.50
40023;DHT22;25713;-35.352;149.036;2024-03-02T07:48:52;23.90;75.40
40023;DHT22;25713;-35.352;149.036;2024-03-02T07:51:21;23.90;76.40
40023;DHT22;25713;-35.352;149.036;2024-03-02T07:53:51;23.80;76.20
40023;DHT22;25713;-35.352;149.036;2024-03-02T07:56:20;23.80;75.90
40023;DHT22;25713;-35.352;149.036;2024-03-02T07:58:50;23.70;76.00
40023;DHT22;25713;-35.352;149.036;2024-03-02T08:01:21;23.80;76.10
40023;DHT22;25713;-35.352;149.036;2024-03-02T08:03:51;23.70;76.80
40023;DHT22;25713;-35.352;149.036;2024-03-02T08:06:21;23.70;76.80
40023;DHT22;25713;-35.352;149.036;2024-03-02T08:08:50;23.70;77.00
40023;DHT22;25713;-35.352;149.036;2024-03-02T08:11:19;23.70;76.60
40023;DHT22;25713;-35.352;149.036;2024-03-02T08:13:49;23.70;76.90
40023;DHT22;25713;-35.352;149.036;2024-03-02T08:16:21;23.60;77.10
40023;DHT22;25713;-35.352;149.036;2024-03-02T08:18:52;23.60;77.30
40023;DHT22;25713;-35.352;149.036;2024-03-02T08:21:21;23.60;76.90
40023;DHT22;25713;-35.352;149.036;2024-03-02T08:23:51;23.60;77.10
40023;DHT22;25713;-35.352;149.036;2024-03-02T08:26:20;23.50;78.00
40023;DHT22;25713;-35.352;149.036;2024-03-02T08:28:50;23.50;77.90
40023;DHT22;25713;-35.352;149.036;2024-03-02T08:31:21;23.50;77.90
40023;DHT22;25713;-35.352;149.036;2024-03-02T08:33:51;23.50;77.60
40023;DHT22;25713;-35.352;149.036;2024-03-02T08:36:20;23.50;77.70
40023;DHT22;25713;-35.352;149.036;2024-03-02T08:38:50;23.60;77.60
40023;DHT22;25713;-35.352;149.036;2024-03-02T08:41:20;23.50;78.10
40023;DHT22;25713;-35.352;149.036;2024-03-02T08:43:49;23.50;77.90
40023;DHT22;25713;-35.352;149.036;2024-03-02T08:46:21;23.40;78.00
40023;DHT22;25713;-35.352;149.036;2024-03-02T08:48:50;23.40;78.60
40023;DHT22;25713;-35.352;149.036;2024-03-02T08:51:20;23.50;78.60
40023;DHT22;25713;-35.352;149.036;2024-03-02T08:53:49;23.40;78.20
40023;DHT22;25713;-35.352;149.036;2024-03-02T08:56:18;23.50;77.70
40023;DHT22;25713;-35.352;149.036;2024-03-02T08:58:48;23.50;78.80
40023;DHT22;25713;-35.352;149.036;2024-03-02T09:01:20;23.50;78.00
40023;DHT22;25713;-35.352;149.036;2024-03-02T09:03:49;23.50;78.20
40023;DHT22;25713;-35.352;149.036;2024-03-02T09:06:18;23.50;78.30
40023;DHT22;25713;-35.352;149.036;2024-03-02T09:08:48;23.40;77.50
40023;DHT22;25713;-35.352;149.036;2024-03-02T09:11:17;23.40;79.00
40023;DHT22;25713;-35.352;149.036;2024-03-02T09:13:47;23.40;78.80
40023;DHT22;25713;-35.352;149.036;2024-03-02T09:16:16;23.40;78.60
40023;DHT22;25713;-35.352;149.036;2024-03-02T09:18:48;23.50;79.40
40023;DHT22;25713;-35.352;149.036;2024-03-02T09:21:17;23.50;78.50
40023;DHT22;25713;-35.352;149.036;2024-03-02T09:23:46;23.50;77.90
40023;DHT22;25713;-35.352;149.036;2024-03-02T09:26:16;23.50;78.30
40023;DHT22;25713;-35.352;149.036;2024-03-02T09:28:46;23.40;77.50
40023;DHT22;25713;-35.352;149.036;2024-03-02T09:31:15;23.30;77.60
40023;DHT22;25713;-35.352;149.036;2024-03-02T09:33:46;23.20;77.70
40023;DHT22;25713;-35.352;149.036;2024-03-02T09:36:19;23.20;77.40
40023;DHT22;25713;-35.352;149.036;2024-03-02T09:38:49;23.20;77.90
40023;DHT22;25713;-35.352;149.036;2024-03-02T09:41:19;23.20;78.50
40023;DHT22;25713;-35.352;149.036;2024-03-02T09:43:49;23.20;78.70
40023;DHT22;25713;-35.352;149.036;2024-03-02T09:46:19;23.20;79.00
40023;DHT22;25713;-35.352;149.036;2024-03-02T09:48:51;23.20;79.10
40023;DHT22;25713;-35.352;149.036;2024-03-02T09:51:20;23.20;78.50
40023;DHT22;25713;-35.352;149.036;2024-03-02T09:53:51;23.20;78.60
40023;DHT22;25713;-35.352;149.036;2024-03-02T09:56:21;23.20;78.60
40023;DHT22;25713;-35.352;149.036;2024-03-02T09:58:50;23.20;78.40
40023;DHT22;25713;-35.352;149.036;2024-03-02T10:01:20;23.20;78.10
40023;DHT22;25713;-35.352;149.036;2024-03-02T10:03:51;23.20;77.90
40023;DHT22;25713;-35.352;149.036;2024-03-02T10:06:23;23.10;78.20
40023;DHT22;25713;-35.352;149.036;2024-03-02T10:08:53;23.10;78.40
40023;DHT22;25713;-35.352;149.036;2024-03-02T10:11:29;23.20;78.50
40023;DHT22;25713;-35.352;149.036;2024-03-02T10:14:09;23.20;78.50
40023;DHT22;25713;-35.352;149.036;2024-03-02T10:16:39;23.20;78.60
40023;DHT22;25713;-35.352;149.036;2024-03-02T10:19:21;23.20;78.80
40023;DHT22;25713;-35.352;149.036;2024-03-02T10:21:51;23.20;78.10
40023;DHT22;25713;-35.352;149.036;2024-03-02T10:24:21;23.20;78.40
40023;DHT22;25713;-35.352;149.036;2024-03-02T10:26:51;23.20;78.30
40023;DHT22;25713;-35.352;149.036;2024-03-02T10:29:20;23.20;78.70
40023;DHT22;25713;-35.352;149.036;2024-03-02T10:31:50;23.20;78.70
40023;DHT22;25713;-35.352;149.036;2024-03-02T10:34:23;23.20;78.60
40023;DHT22;25713;-35.352;149.036;2024-03-02T10:36:52;23.20;78.60
40023;DHT22;25713;-35.352;149.036;2024-03-02T10:39:22;23.20;78.50
40023;DHT22;25713;-35.352;149.036;2024-03-02T10:41:54;23.20;78.60
40023;DHT22;25713;-35.352;149.036;2024-03-02T10:44:25;23.10;78.40
40023;DHT22;25713;-35.352;149.036;2024-03-02T10:46:55;23.10;78.30
40023;DHT22;25713;-35.352;149.036;2024-03-02T10:49:27;23.20;77.90
40023;DHT22;25713;-35.352;149.036;2024-03-02T10:51:58;23.10;78.20
40023;DHT22;25713;-35.352;149.036;2024-03-02T10:54:28;23.10;78.10
40023;DHT22;25713;-35.352;149.036;2024-03-02T10:56:59;23.10;77.90
40023;DHT22;25713;-35.352;149.036;2024-03-02T10:59:33;23.10;77.60
40023;DHT22;25713;-35.352;149.036;2024-03-02T11:02:03;23.00;77.50
40023;DHT22;25713;-35.352;149.036;2024-03-02T11:04:35;23.00;77.30
40023;DHT22;25713;-35.352;149.036;2024-03-02T11:07:06;23.00;78.00
40023;DHT22;25713;-35.352;149.036;2024-03-02T11:09:38;23.00;78.20
40023;DHT22;25713;-35.352;149.036;2024-03-02T11:12:15;22.90;78.10
40023;DHT22;25713;-35.352;149.036;2024-03-02T11:14:48;22.90;77.80
40023;DHT22;25713;-35.352;149.036;2024-03-02T11:17:20;22.90;78.00
40023;DHT22;25713;-35.352;149.036;2024-03-02T11:19:53;22.80;77.10
40023;DHT22;25713;-35.352;149.036;2024-03-02T11:22:21;22.80;77.80
40023;DHT22;25713;-35.352;149.036;2024-03-02T11:24:51;22.80;78.00
40023;DHT22;25713;-35.352;149.036;2024-03-02T11:30:50;22.70;77.80
40023;DHT22;25713;-35.352;149.036;2024-03-02T11:33:26;22.70;78.00
40023;DHT22;25713;-35.352;149.036;2024-03-02T11:35:58;22.70;78.00
40023;DHT22;25713;-35.352;149.036;2024-03-02T11:38:32;22.70;78.00
40023;DHT22;25713;-35.352;149.036;2024-03-02T11:41:02;22.70;78.00
40023;DHT22;25713;-35.352;149.036;2024-03-02T11:43:37;22.70;78.20
40023;DHT22;25713;-35.352;149.036;2024-03-02T11:46:07;22.70;78.30
40023;DHT22;25713;-35.352;149.036;2024-03-02T11:48:39;22.70;78.30
40023;DHT22;25713;-35.352;149.036;2024-03-02T11:51:12;22.60;78.30
40023;DHT22;25713;-35.352;149.036;2024-03-02T11:53:42;22.60;78.40
40023;DHT22;25713;-35.352;149.036;2024-03-02T11:56:15;22.70;78.40
40023;DHT22;25713;-35.352;149.036;2024-03-02T11:58:45;22.60;78.20
40023;DHT22;25713;-35.352;149.036;2024-03-02T12:01:15;22.60;78.00
40023;DHT22;25713;-35.352;149.036;2024-03-02T12:03:44;22.50;78.30
40023;DHT22;25713;-35.352;149.036;2024-03-02T12:06:16;22.50;78.40
40023;DHT22;25713;-35.352;149.036;2024-03-02T12:08:46;22.50;78.70
40023;DHT22;25713;-35.352;149.036;2024-03-02T12:11:15;22.50;78.60
40023;DHT22;25713;-35.352;149.036;2024-03-02T12:13:53;22.50;78.60
40023;DHT22;25713;-35.352;149.036;2024-03-02T12:16:25;22.50;78.80
40023;DHT22;25713;-35.352;149.036;2024-03-02T12:18:55;22.40;78.60
40023;DHT22;25713;-35.352;149.036;2024-03-02T12:21:27;22.50;78.30
40023;DHT22;25713;-35.352;149.036;2024-03-02T12:23:56;22.50;78.70
40023;DHT22;25713;-35.352;149.036;2024-03-02T12:26:26;22.50;78.80
40023;DHT22;25713;-35.352;149.036;2024-03-02T12:28:55;22.50;78.70
40023;DHT22;25713;-35.352;149.036;2024-03-02T12:31:25;22.50;78.50
40023;DHT22;25713;-35.352;149.036;2024-03-02T12:33:55;22.50;78.70
40023;DHT22;25713;-35.352;149.036;2024-03-02T12:36:27;22.50;78.90
40023;DHT22;25713;-35.352;149.036;2024-03-02T12:38:56;22.50;78.90
40023;DHT22;25713;-35.352;149.036;2024-03-02T12:41:26;22.50;79.20
40023;DHT22;25713;-35.352;149.036;2024-03-02T12:43:55;22.50;78.80
40023;DHT22;25713;-35.352;149.036;2024-03-02T12:46:25;22.50;78.90
40023;DHT22;25713;-35.352;149.036;2024-03-02T12:48:55;22.50;78.80
40023;DHT22;25713;-35.352;149.036;2024-03-02T12:51:26;22.50;79.20
40023;DHT22;25713;-35.352;149.036;2024-03-02T12:53:57;22.50;78.80
40023;DHT22;25713;-35.352;149.036;2024-03-02T12:56:26;22.40;78.20
40023;DHT22;25713;-35.352;149.036;2024-03-02T12:58:56;22.40;78.70
40023;DHT22;25713;-35.352;149.036;2024-03-02T13:01:26;22.50;78.70
40023;DHT22;25713;-35.352;149.036;2024-03-02T13:03:55;22.40;78.80
40023;DHT22;25713;-35.352;149.036;2024-03-02T13:06:27;22.50;78.60
40023;DHT22;25713;-35.352;149.036;2024-03-02T13:08:57;22.40;79.30
40023;DHT22;25713;-35.352;149.036;2024-03-02T13:11:26;22.40;78.80
40023;DHT22;25713;-35.352;149.036;2024-03-02T13:13:56;22.50;78.90
40023;DHT22;25713;-35.352;149.036;2024-03-02T13:16:25;22.40;78.90
40023;DHT22;25713;-35.352;149.036;2024-03-02T13:18:56;22.40;78.80
40023;DHT22;25713;-35.352;149.036;2024-03-02T13:21:28;22.40;79.60
40023;DHT22;25713;-35.352;149.036;2024-03-02T13:23:57;22.40;79.00
40023;DHT22;25713;-35.352;149.036;2024-03-02T13:26:27;22.40;79.00
40023;DHT22;25713;-35.352;149.036;2024-03-02T13:28:56;22.40;78.50
40023;DHT22;25713;-35.352;149.036;2024-03-02T13:31:26;22.40;78.70
40023;DHT22;25713;-35.352;149.036;2024-03-02T13:33:55;22.40;78.70
40023;DHT22;25713;-35.352;149.036;2024-03-02T13:36:27;22.40;79.30
40023;DHT22;25713;-35.352;149.036;2024-03-02T13:38:56;22.30;78.80
40023;DHT22;25713;-35.352;149.036;2024-03-02T13:41:26;22.40;78.80
40023;DHT22;25713;-35.352;149.036;2024-03-02T13:43:55;22.40;78.90
40023;DHT22;25713;-35.352;149.036;2024-03-02T13:46:25;22.30;78.60
40023;DHT22;25713;-35.352;149.036;2024-03-02T13:48:55;22.30;78.60
40023;DHT22;25713;-35.352;149.036;2024-03-02T13:51:29;22.30;78.80
40023;DHT22;25713;-35.352;149.036;2024-03-02T13:53:58;22.20;78.30
40023;DHT22;25713;-35.352;149.036;2024-03-02T13:56:28;22.20;78.30
40023;DHT22;25713;-35.352;149.036;2024-03-02T13:58:58;22.10;78.60
40023;DHT22;25713;-35.352;149.036;2024-03-02T14:01:27;22.00;78.60
40023;DHT22;25713;-35.352;149.036;2024-03-02T14:03:57;22.10;78.80
40023;DHT22;25713;-35.352;149.036;2024-03-02T14:06:28;22.10;78.70
40023;DHT22;25713;-35.352;149.036;2024-03-02T14:08:58;22.10;78.60
40023;DHT22;25713;-35.352;149.036;2024-03-02T14:11:27;22.10;79.20
40023;DHT22;25713;-35.352;149.036;2024-03-02T14:13:57;22.10;79.20
40023;DHT22;25713;-35.352;149.036;2024-03-02T14:16:26;22.10;78.50
40023;DHT22;25713;-35.352;149.036;2024-03-02T14:18:56;22.10;78.00
40023;DHT22;25713;-35.352;149.036;2024-03-02T14:21:27;22.10;78.70
40023;DHT22;25713;-35.352;149.036;2024-03-02T14:23:57;22.10;78.50
40023;DHT22;25713;-35.352;149.036;2024-03-02T14:26:26;22.10;78.60
40023;DHT22;25713;-35.352;149.036;2024-03-02T14:28:55;22.10;78.50
40023;DHT22;25713;-35.352;149.036;2024-03-02T14:31:25;22.00;78.40
40023;DHT22;25713;-35.352;149.036;2024-03-02T14:33:54;22.00;78.30
40023;DHT22;25713;-35.352;149.036;2024-03-02T14:36:24;22.00;78.40
40023;DHT22;25713;-35.352;149.036;2024-03-02T14:38:55;22.00;78.80
40023;DHT22;25713;-35.352;149.036;2024-03-02T14:41:25;22.00;79.10
40023;DHT22;25713;-35.352;149.036;2024-03-02T15:46:33;21.70;80.00
40023;DHT22;25713;-35.352;149.036;2024-03-02T15:49:03;21.70;80.40
40023;DHT22;25713;-35.352;149.036;2024-03-02T15:51:32;21.60;80.40
40023;DHT22;25713;-35.352;149.036;2024-03-02T15:54:02;21.70;80.60
40023;DHT22;25713;-35.352;149.036;2024-03-02T15:56:31;21.70;80.60
40023;DHT22;25713;-35.352;149.036;2024-03-02T15:59:00;21.70;80.50
40023;DHT22;25713;-35.352;149.036;2024-03-02T16:01:32;21.70;80.40
40023;DHT22;25713;-35.352;149.036;2024-03-02T16:04:02;21.70;80.40
40023;DHT22;25713;-35.352;149.036;2024-03-02T16:06:31;21.70;80.30
40023;DHT22;25713;-35.352;149.036;2024-03-02T16:09:01;21.80;80.40
40023;DHT22;25713;-35.352;149.036;2024-03-02T16:11:30;21.70;80.20